Matsue, Japan
Current Conditions -  °F | °C
As of 8:00 PM on Saturday 20 Dec 2014 (Local Time) from RJOC Reporting Station
Few Clouds Few Clouds  
Wind Chill: 38°   Ceiling: Unl
Heat Index: 46°   Visibility: 6mi
Dew Point: 34°   Wind: 23mph
Humidity: 62%   Direction: 300°WNW
Pressure: 29.97"   Gusts: NA
Location:  35.46806°N, 133.0484°E
Report Text: RJOC 201100Z 30020KT 9999 FEW040 08/01 Q1015
Loading
Personal Weather Stations






























Interactive Weather Map New forecast layout! Learn more

10-Day Weather Forecast

Advertisements
Track Severe Weather on mobile